sensor_id;sensor_type;location;lat;lon;timestamp;P1;durP1;ratioP1;P2;durP2;ratioP2
9322;SDS011;4700;48.822;9.270;2023-07-31T00:00:58;383.10;;;301.27;;
9322;SDS011;4700;48.822;9.270;2023-07-31T00:03:45;378.60;;;293.00;;
9322;SDS011;4700;48.822;9.270;2023-07-31T00:06:30;375.60;;;256.27;;
9322;SDS011;4700;48.822;9.270;2023-07-31T00:09:18;380.07;;;291.07;;
9322;SDS011;4700;48.822;9.270;2023-07-31T00:12:04;375.63;;;287.47;;
9322;SDS011;4700;48.822;9.270;2023-07-31T00:14:50;382.10;;;311.67;;
9322;SDS011;4700;48.822;9.270;2023-07-31T00:17:36;379.90;;;304.67;;
9322;SDS011;4700;48.822;9.270;2023-07-31T00:20:22;381.93;;;314.37;;
9322;SDS011;4700;48.822;9.270;2023-07-31T00:23:08;380.53;;;296.80;;
9322;SDS011;4700;48.822;9.270;2023-07-31T00:25:55;378.20;;;298.93;;
9322;SDS011;4700;48.822;9.270;2023-07-31T00:28:41;378.60;;;306.57;;
9322;SDS011;4700;48.822;9.270;2023-07-31T00:31:27;386.77;;;330.67;;
9322;SDS011;4700;48.822;9.270;2023-07-31T00:34:13;389.63;;;319.97;;
9322;SDS011;4700;48.822;9.270;2023-07-31T00:36:59;384.63;;;327.83;;
9322;SDS011;4700;48.822;9.270;2023-07-31T00:39:44;381.57;;;313.17;;
9322;SDS011;4700;48.822;9.270;2023-07-31T00:42:31;387.30;;;310.43;;
9322;SDS011;4700;48.822;9.270;2023-07-31T00:45:17;388.27;;;329.07;;
9322;SDS011;4700;48.822;9.270;2023-07-31T00:48:04;379.70;;;305.27;;
9322;SDS011;4700;48.822;9.270;2023-07-31T00:50:51;379.90;;;305.77;;
9322;SDS011;4700;48.822;9.270;2023-07-31T00:53:36;378.93;;;298.97;;
9322;SDS011;4700;48.822;9.270;2023-07-31T00:56:22;383.90;;;321.10;;
9322;SDS011;4700;48.822;9.270;2023-07-31T00:59:11;384.83;;;308.07;;
9322;SDS011;4700;48.822;9.270;2023-07-31T01:02:02;384.53;;;319.77;;
9322;SDS011;4700;48.822;9.270;2023-07-31T01:04:50;381.80;;;314.57;;
9322;SDS011;4700;48.822;9.270;2023-07-31T01:07:39;383.00;;;317.07;;
9322;SDS011;4700;48.822;9.270;2023-07-31T01:10:38;374.53;;;202.87;;
9322;SDS011;4700;48.822;9.270;2023-07-31T01:13:29;372.80;;;271.47;;
9322;SDS011;4700;48.822;9.270;2023-07-31T01:16:16;375.90;;;261.33;;
9322;SDS011;4700;48.822;9.270;2023-07-31T01:19:02;373.77;;;286.50;;
9322;SDS011;4700;48.822;9.270;2023-07-31T01:21:53;373.47;;;284.10;;
9322;SDS011;4700;48.822;9.270;2023-07-31T01:25:05;374.10;;;294.37;;
9322;SDS011;4700;48.822;9.270;2023-07-31T01:28:03;369.30;;;277.60;;
9322;SDS011;4700;48.822;9.270;2023-07-31T01:30:52;370.30;;;274.10;;
9322;SDS011;4700;48.822;9.270;2023-07-31T01:33:40;371.63;;;269.93;;
9322;SDS011;4700;48.822;9.270;2023-07-31T01:36:26;370.87;;;257.63;;
9322;SDS011;4700;48.822;9.270;2023-07-31T01:39:12;368.00;;;257.20;;
9322;SDS011;4700;48.822;9.270;2023-07-31T01:41:59;369.63;;;269.93;;
9322;SDS011;4700;48.822;9.270;2023-07-31T01:44:46;365.07;;;242.03;;
9322;SDS011;4700;48.822;9.270;2023-07-31T01:47:32;367.80;;;256.33;;
9322;SDS011;4700;48.822;9.270;2023-07-31T01:50:18;371.83;;;268.77;;
9322;SDS011;4700;48.822;9.270;2023-07-31T01:53:03;368.00;;;251.93;;
9322;SDS011;4700;48.822;9.270;2023-07-31T01:55:51;369.63;;;269.43;;
9322;SDS011;4700;48.822;9.270;2023-07-31T01:58:37;369.57;;;254.63;;
9322;SDS011;4700;48.822;9.270;2023-07-31T02:01:25;371.20;;;259.57;;
9322;SDS011;4700;48.822;9.270;2023-07-31T02:04:11;365.80;;;249.30;;
9322;SDS011;4700;48.822;9.270;2023-07-31T02:06:57;371.87;;;263.47;;
9322;SDS011;4700;48.822;9.270;2023-07-31T02:09:43;369.63;;;270.67;;
9322;SDS011;4700;48.822;9.270;2023-07-31T02:12:30;364.47;;;248.23;;
9322;SDS011;4700;48.822;9.270;2023-07-31T02:15:18;363.67;;;251.03;;
9322;SDS011;4700;48.822;9.270;2023-07-31T02:18:06;367.10;;;259.07;;
9322;SDS011;4700;48.822;9.270;2023-07-31T02:20:52;370.40;;;248.47;;
9322;SDS011;4700;48.822;9.270;2023-07-31T02:23:38;368.93;;;263.37;;
9322;SDS011;4700;48.822;9.270;2023-07-31T02:26:24;370.50;;;280.63;;
9322;SDS011;4700;48.822;9.270;2023-07-31T02:29:12;365.57;;;245.80;;
9322;SDS011;4700;48.822;9.270;2023-07-31T02:31:59;366.20;;;251.17;;
9322;SDS011;4700;48.822;9.270;2023-07-31T02:34:46;371.67;;;274.57;;
9322;SDS011;4700;48.822;9.270;2023-07-31T02:37:33;375.33;;;290.30;;
9322;SDS011;4700;48.822;9.270;2023-07-31T02:40:19;371.33;;;271.63;;
9322;SDS011;4700;48.822;9.270;2023-07-31T02:43:05;368.10;;;272.77;;
9322;SDS011;4700;48.822;9.270;2023-07-31T02:45:51;374.13;;;267.03;;
9322;SDS011;4700;48.822;9.270;2023-07-31T02:48:37;368.60;;;254.00;;
9322;SDS011;4700;48.822;9.270;2023-07-31T02:51:25;373.23;;;281.77;;
9322;SDS011;4700;48.822;9.270;2023-07-31T02:54:12;367.93;;;271.67;;
9322;SDS011;4700;48.822;9.270;2023-07-31T02:56:58;370.27;;;277.97;;
9322;SDS011;4700;48.822;9.270;2023-07-31T02:59:44;370.30;;;275.77;;
9322;SDS011;4700;48.822;9.270;2023-07-31T03:02:30;373.37;;;281.67;;
9322;SDS011;4700;48.822;9.270;2023-07-31T03:05:18;373.73;;;291.27;;
9322;SDS011;4700;48.822;9.270;2023-07-31T03:08:05;371.50;;;282.23;;
9322;SDS011;4700;48.822;9.270;2023-07-31T03:10:50;377.13;;;293.87;;
9322;SDS011;4700;48.822;9.270;2023-07-31T03:13:30;374.63;;;297.57;;
9322;SDS011;4700;48.822;9.270;2023-07-31T03:16:16;373.27;;;284.00;;
9322;SDS011;4700;48.822;9.270;2023-07-31T03:19:02;371.43;;;285.70;;
9322;SDS011;4700;48.822;9.270;2023-07-31T03:21:48;369.80;;;281.33;;
9322;SDS011;4700;48.822;9.270;2023-07-31T03:24:35;372.20;;;284.40;;
9322;SDS011;4700;48.822;9.270;2023-07-31T03:27:20;371.03;;;277.43;;
9322;SDS011;4700;48.822;9.270;2023-07-31T03:30:07;375.20;;;290.63;;
9322;SDS011;4700;48.822;9.270;2023-07-31T03:32:53;370.00;;;284.87;;
9322;SDS011;4700;48.822;9.270;2023-07-31T03:35:41;374.93;;;296.47;;
9322;SDS011;4700;48.822;9.270;2023-07-31T03:38:28;373.37;;;307.23;;
9322;SDS011;4700;48.822;9.270;2023-07-31T03:41:15;377.23;;;298.87;;
9322;SDS011;4700;48.822;9.270;2023-07-31T03:44:01;371.87;;;283.80;;
9322;SDS011;4700;48.822;9.270;2023-07-31T03:46:47;372.67;;;296.37;;
9322;SDS011;4700;48.822;9.270;2023-07-31T03:49:33;372.53;;;295.40;;
9322;SDS011;4700;48.822;9.270;2023-07-31T03:52:18;373.10;;;291.10;;
9322;SDS011;4700;48.822;9.270;2023-07-31T03:55:04;377.60;;;297.90;;
9322;SDS011;4700;48.822;9.270;2023-07-31T03:57:51;372.63;;;295.17;;
9322;SDS011;4700;48.822;9.270;2023-07-31T04:00:40;372.97;;;296.67;;
9322;SDS011;4700;48.822;9.270;2023-07-31T04:03:26;368.93;;;281.33;;
9322;SDS011;4700;48.822;9.270;2023-07-31T04:06:12;370.00;;;283.23;;
9322;SDS011;4700;48.822;9.270;2023-07-31T04:08:57;370.53;;;287.27;;
9322;SDS011;4700;48.822;9.270;2023-07-31T04:14:20;376.70;;;308.27;;
9322;SDS011;4700;48.822;9.270;2023-07-31T04:17:06;375.60;;;312.60;;
9322;SDS011;4700;48.822;9.270;2023-07-31T04:19:52;374.87;;;304.83;;
9322;SDS011;4700;48.822;9.270;2023-07-31T04:22:37;377.67;;;288.37;;
9322;SDS011;4700;48.822;9.270;2023-07-31T04:25:23;390.03;;;340.70;;
9322;SDS011;4700;48.822;9.270;2023-07-31T04:28:09;383.03;;;318.70;;
9322;SDS011;4700;48.822;9.270;2023-07-31T04:30:56;378.77;;;317.33;;
9322;SDS011;4700;48.822;9.270;2023-07-31T04:33:41;393.97;;;337.33;;
9322;SDS011;4700;48.822;9.270;2023-07-31T04:36:27;383.80;;;329.67;;
9322;SDS011;4700;48.822;9.270;2023-07-31T04:39:13;384.70;;;321.73;;
9322;SDS011;4700;48.822;9.270;2023-07-31T04:41:59;391.27;;;331.73;;
9322;SDS011;4700;48.822;9.270;2023-07-31T04:44:46;385.67;;;329.77;;
9322;SDS011;4700;48.822;9.270;2023-07-31T04:47:33;395.80;;;347.83;;
9322;SDS011;4700;48.822;9.270;2023-07-31T04:50:19;386.20;;;331.57;;
9322;SDS011;4700;48.822;9.270;2023-07-31T04:53:05;397.27;;;332.60;;
9322;SDS011;4700;48.822;9.270;2023-07-31T04:55:51;395.20;;;320.13;;
9322;SDS011;4700;48.822;9.270;2023-07-31T04:58:36;390.50;;;329.00;;
9322;SDS011;4700;48.822;9.270;2023-07-31T05:01:22;394.57;;;324.67;;
9322;SDS011;4700;48.822;9.270;2023-07-31T05:04:10;394.90;;;313.83;;
9322;SDS011;4700;48.822;9.270;2023-07-31T05:06:57;392.07;;;341.43;;
9322;SDS011;4700;48.822;9.270;2023-07-31T05:09:42;412.60;;;367.30;;
9322;SDS011;4700;48.822;9.270;2023-07-31T05:12:28;405.90;;;361.33;;
9322;SDS011;4700;48.822;9.270;2023-07-31T05:15:01;400.37;;;348.10;;
9322;SDS011;4700;48.822;9.270;2023-07-31T05:17:47;399.83;;;339.07;;
9322;SDS011;4700;48.822;9.270;2023-07-31T05:20:34;404.40;;;350.93;;
9322;SDS011;4700;48.822;9.270;2023-07-31T05:23:19;399.20;;;345.30;;
9322;SDS011;4700;48.822;9.270;2023-07-31T05:26:05;399.40;;;339.47;;
9322;SDS011;4700;48.822;9.270;2023-07-31T05:28:53;402.30;;;339.43;;
9322;SDS011;4700;48.822;9.270;2023-07-31T05:31:38;409.17;;;344.50;;
9322;SDS011;4700;48.822;9.270;2023-07-31T05:34:24;402.77;;;332.87;;
9322;SDS011;4700;48.822;9.270;2023-07-31T05:37:11;427.13;;;351.60;;
9322;SDS011;4700;48.822;9.270;2023-07-31T05:39:57;409.00;;;334.80;;
9322;SDS011;4700;48.822;9.270;2023-07-31T05:42:42;404.60;;;332.83;;
9322;SDS011;4700;48.822;9.270;2023-07-31T05:45:28;433.23;;;337.63;;
9322;SDS011;4700;48.822;9.270;2023-07-31T05:48:13;411.20;;;315.63;;
9322;SDS011;4700;48.822;9.270;2023-07-31T05:50:59;408.07;;;310.50;;
9322;SDS011;4700;48.822;9.270;2023-07-31T05:53:47;409.57;;;283.87;;
9322;SDS011;4700;48.822;9.270;2023-07-31T05:56:36;407.00;;;287.40;;
9322;SDS011;4700;48.822;9.270;2023-07-31T05:59:22;405.73;;;277.10;;
9322;SDS011;4700;48.822;9.270;2023-07-31T06:02:08;412.10;;;295.80;;
9322;SDS011;4700;48.822;9.270;2023-07-31T06:04:53;402.47;;;270.90;;
9322;SDS011;4700;48.822;9.270;2023-07-31T06:07:39;424.83;;;306.43;;
9322;SDS011;4700;48.822;9.270;2023-07-31T06:10:26;407.93;;;276.40;;
9322;SDS011;4700;48.822;9.270;2023-07-31T06:13:12;448.73;;;318.03;;
9322;SDS011;4700;48.822;9.270;2023-07-31T06:15:58;425.40;;;297.83;;
9322;SDS011;4700;48.822;9.270;2023-07-31T06:18:46;423.33;;;286.60;;
9322;SDS011;4700;48.822;9.270;2023-07-31T06:21:33;421.80;;;295.33;;
9322;SDS011;4700;48.822;9.270;2023-07-31T06:24:21;435.53;;;321.03;;
9322;SDS011;4700;48.822;9.270;2023-07-31T06:27:08;409.80;;;304.10;;
9322;SDS011;4700;48.822;9.270;2023-07-31T06:29:54;419.70;;;302.93;;
9322;SDS011;4700;48.822;9.270;2023-07-31T06:32:40;429.00;;;331.40;;
9322;SDS011;4700;48.822;9.270;2023-07-31T06:35:26;418.30;;;331.03;;
9322;SDS011;4700;48.822;9.270;2023-07-31T06:38:11;431.03;;;349.33;;
9322;SDS011;4700;48.822;9.270;2023-07-31T06:40:57;421.60;;;332.60;;
9322;SDS011;4700;48.822;9.270;2023-07-31T06:43:44;426.83;;;356.60;;
9322;SDS011;4700;48.822;9.270;2023-07-31T06:46:30;441.77;;;379.50;;
9322;SDS011;4700;48.822;9.270;2023-07-31T06:49:15;431.80;;;353.93;;
9322;SDS011;4700;48.822;9.270;2023-07-31T06:52:01;444.40;;;348.03;;
9322;SDS011;4700;48.822;9.270;2023-07-31T06:54:59;419.77;;;313.93;;
9322;SDS011;4700;48.822;9.270;2023-07-31T06:57:46;460.20;;;405.47;;
9322;SDS011;4700;48.822;9.270;2023-07-31T07:00:33;486.63;;;434.97;;
9322;SDS011;4700;48.822;9.270;2023-07-31T07:03:22;489.60;;;436.27;;
9322;SDS011;4700;48.822;9.270;2023-07-31T07:06:07;492.70;;;442.23;;
9322;SDS011;4700;48.822;9.270;2023-07-31T07:08:53;490.73;;;438.83;;
9322;SDS011;4700;48.822;9.270;2023-07-31T07:11:39;576.77;;;519.77;;
9322;SDS011;4700;48.822;9.270;2023-07-31T07:14:24;540.90;;;486.93;;
9322;SDS011;4700;48.822;9.270;2023-07-31T07:17:13;563.67;;;509.00;;
9322;SDS011;4700;48.822;9.270;2023-07-31T07:19:59;566.97;;;513.03;;
9322;SDS011;4700;48.822;9.270;2023-07-31T07:22:47;570.67;;;517.27;;
9322;SDS011;4700;48.822;9.270;2023-07-31T07:25:32;646.33;;;588.10;;
9322;SDS011;4700;48.822;9.270;2023-07-31T07:28:18;584.73;;;530.83;;
9322;SDS011;4700;48.822;9.270;2023-07-31T07:31:03;594.00;;;538.27;;
9322;SDS011;4700;48.822;9.270;2023-07-31T07:33:51;552.20;;;498.27;;
9322;SDS011;4700;48.822;9.270;2023-07-31T07:36:36;539.67;;;486.80;;
9322;SDS011;4700;48.822;9.270;2023-07-31T07:39:22;481.93;;;429.10;;
9322;SDS011;4700;48.822;9.270;2023-07-31T07:42:08;524.73;;;470.63;;
9322;SDS011;4700;48.822;9.270;2023-07-31T07:44:55;491.33;;;438.97;;
9322;SDS011;4700;48.822;9.270;2023-07-31T07:47:41;477.67;;;426.10;;
9322;SDS011;4700;48.822;9.270;2023-07-31T07:50:30;475.77;;;423.63;;
9322;SDS011;4700;48.822;9.270;2023-07-31T07:53:17;480.27;;;427.37;;
9322;SDS011;4700;48.822;9.270;2023-07-31T07:56:03;460.37;;;397.43;;
9322;SDS011;4700;48.822;9.270;2023-07-31T07:58:52;444.23;;;364.50;;
9322;SDS011;4700;48.822;9.270;2023-07-31T08:01:38;456.50;;;379.37;;
9322;SDS011;4700;48.822;9.270;2023-07-31T08:04:23;462.33;;;382.13;;
9322;SDS011;4700;48.822;9.270;2023-07-31T08:07:11;452.90;;;375.10;;
9322;SDS011;4700;48.822;9.270;2023-07-31T08:09:57;447.23;;;360.27;;
9322;SDS011;4700;48.822;9.270;2023-07-31T08:12:43;433.50;;;350.07;;
9322;SDS011;4700;48.822;9.270;2023-07-31T08:15:29;433.93;;;338.63;;
9322;SDS011;4700;48.822;9.270;2023-07-31T08:18:15;469.83;;;405.77;;
9322;SDS011;4700;48.822;9.270;2023-07-31T08:21:01;477.07;;;421.80;;
9322;SDS011;4700;48.822;9.270;2023-07-31T08:23:48;467.90;;;416.70;;
9322;SDS011;4700;48.822;9.270;2023-07-31T08:26:34;468.87;;;417.97;;
9322;SDS011;4700;48.822;9.270;2023-07-31T08:29:20;528.60;;;474.73;;
9322;SDS011;4700;48.822;9.270;2023-07-31T08:32:05;475.43;;;423.70;;
9322;SDS011;4700;48.822;9.270;2023-07-31T08:34:51;485.43;;;434.03;;
9322;SDS011;4700;48.822;9.270;2023-07-31T08:37:37;481.07;;;428.30;;
9322;SDS011;4700;48.822;9.270;2023-07-31T08:40:24;492.60;;;440.20;;
9322;SDS011;4700;48.822;9.270;2023-07-31T08:43:11;493.30;;;440.40;;
9322;SDS011;4700;48.822;9.270;2023-07-31T08:45:56;459.97;;;409.00;;
9322;SDS011;4700;48.822;9.270;2023-07-31T08:48:42;473.63;;;422.67;;
9322;SDS011;4700;48.822;9.270;2023-07-31T08:51:29;493.50;;;441.23;;
9322;SDS011;4700;48.822;9.270;2023-07-31T08:54:15;502.80;;;449.27;;
9322;SDS011;4700;48.822;9.270;2023-07-31T08:57:02;459.63;;;404.97;;
9322;SDS011;4700;48.822;9.270;2023-07-31T08:59:50;458.53;;;395.83;;
9322;SDS011;4700;48.822;9.270;2023-07-31T09:02:37;458.17;;;379.77;;
9322;SDS011;4700;48.822;9.270;2023-07-31T09:05:31;459.47;;;375.70;;
9322;SDS011;4700;48.822;9.270;2023-07-31T09:08:17;464.67;;;390.33;;
9322;SDS011;4700;48.822;9.270;2023-07-31T09:11:04;443.20;;;351.43;;
9322;SDS011;4700;48.822;9.270;2023-07-31T09:13:52;469.03;;;381.80;;
9322;SDS011;4700;48.822;9.270;2023-07-31T09:16:50;466.33;;;373.97;;
9322;SDS011;4700;48.822;9.270;2023-07-31T09:19:39;473.10;;;405.07;;
9322;SDS011;4700;48.822;9.270;2023-07-31T09:22:31;476.20;;;418.53;;
9322;SDS011;4700;48.822;9.270;2023-07-31T09:25:18;468.07;;;405.80;;
9322;SDS011;4700;48.822;9.270;2023-07-31T09:28:06;457.63;;;396.90;;
9322;SDS011;4700;48.822;9.270;2023-07-31T09:30:58;462.23;;;403.73;;
9322;SDS011;4700;48.822;9.270;2023-07-31T09:33:53;461.87;;;410.60;;
9322;SDS011;4700;48.822;9.270;2023-07-31T09:36:41;484.27;;;431.27;;
9322;SDS011;4700;48.822;9.270;2023-07-31T09:39:27;544.33;;;489.20;;
9322;SDS011;4700;48.822;9.270;2023-07-31T09:42:14;549.87;;;495.40;;
9322;SDS011;4700;48.822;9.270;2023-07-31T09:45:10;509.43;;;456.40;;
9322;SDS011;4700;48.822;9.270;2023-07-31T09:47:58;488.93;;;435.63;;
9322;SDS011;4700;48.822;9.270;2023-07-31T09:50:44;492.10;;;439.83;;
9322;SDS011;4700;48.822;9.270;2023-07-31T09:53:31;469.77;;;414.00;;
9322;SDS011;4700;48.822;9.270;2023-07-31T09:56:19;508.10;;;453.23;;
9322;SDS011;4700;48.822;9.270;2023-07-31T09:59:06;472.90;;;421.10;;
9322;SDS011;4700;48.822;9.270;2023-07-31T10:01:54;480.73;;;428.20;;
9322;SDS011;4700;48.822;9.270;2023-07-31T10:04:43;464.87;;;403.63;;
9322;SDS011;4700;48.822;9.270;2023-07-31T10:07:30;521.87;;;466.70;;
9322;SDS011;4700;48.822;9.270;2023-07-31T10:10:20;476.07;;;421.63;;
9322;SDS011;4700;48.822;9.270;2023-07-31T10:13:06;458.70;;;399.83;;
9322;SDS011;4700;48.822;9.270;2023-07-31T10:15:52;454.50;;;366.77;;
9322;SDS011;4700;48.822;9.270;2023-07-31T10:18:38;447.90;;;366.47;;
9322;SDS011;4700;48.822;9.270;2023-07-31T10:21:27;471.43;;;393.07;;
9322;SDS011;4700;48.822;9.270;2023-07-31T10:24:13;481.07;;;391.67;;
9322;SDS011;4700;48.822;9.270;2023-07-31T10:27:01;474.63;;;398.60;;
9322;SDS011;4700;48.822;9.270;2023-07-31T10:29:47;459.20;;;399.13;;
9322;SDS011;4700;48.822;9.270;2023-07-31T10:32:33;458.13;;;388.50;;
9322;SDS011;4700;48.822;9.270;2023-07-31T10:35:20;467.17;;;406.33;;
9322;SDS011;4700;48.822;9.270;2023-07-31T10:38:11;460.20;;;403.60;;
9322;SDS011;4700;48.822;9.270;2023-07-31T10:41:07;475.83;;;412.57;;
9322;SDS011;4700;48.822;9.270;2023-07-31T10:43:54;447.27;;;364.27;;
9322;SDS011;4700;48.822;9.270;2023-07-31T10:46:41;450.10;;;348.00;;
9322;SDS011;4700;48.822;9.270;2023-07-31T10:49:27;463.60;;;379.40;;
9322;SDS011;4700;48.822;9.270;2023-07-31T10:52:19;454.67;;;363.30;;
9322;SDS011;4700;48.822;9.270;2023-07-31T10:55:24;453.07;;;354.43;;
9322;SDS011;4700;48.822;9.270;2023-07-31T10:58:11;448.53;;;355.43;;
9322;SDS011;4700;48.822;9.270;2023-07-31T11:01:01;470.97;;;374.07;;
9322;SDS011;4700;48.822;9.270;2023-07-31T11:03:48;468.43;;;366.17;;
9322;SDS011;4700;48.822;9.270;2023-07-31T11:06:36;444.13;;;329.27;;
9322;SDS011;4700;48.822;9.270;2023-07-31T11:09:21;462.07;;;355.03;;
9322;SDS011;4700;48.822;9.270;2023-07-31T11:12:08;448.63;;;317.33;;
9322;SDS011;4700;48.822;9.270;2023-07-31T11:14:56;462.37;;;350.60;;
9322;SDS011;4700;48.822;9.270;2023-07-31T11:17:42;476.20;;;347.73;;
9322;SDS011;4700;48.822;9.270;2023-07-31T11:20:28;472.10;;;350.03;;
9322;SDS011;4700;48.822;9.270;2023-07-31T11:23:15;466.87;;;342.07;;
9322;SDS011;4700;48.822;9.270;2023-07-31T11:26:02;443.77;;;317.17;;
9322;SDS011;4700;48.822;9.270;2023-07-31T11:28:51;444.47;;;320.97;;
9322;SDS011;4700;48.822;9.270;2023-07-31T11:31:41;444.43;;;320.77;;
9322;SDS011;4700;48.822;9.270;2023-07-31T11:34:27;449.60;;;322.87;;
9322;SDS011;4700;48.822;9.270;2023-07-31T11:37:13;454.13;;;349.20;;
9322;SDS011;4700;48.822;9.270;2023-07-31T11:39:59;473.80;;;365.67;;
9322;SDS011;4700;48.822;9.270;2023-07-31T11:42:44;451.77;;;329.87;;
9322;SDS011;4700;48.822;9.270;2023-07-31T11:45:32;453.10;;;331.73;;
9322;SDS011;4700;48.822;9.270;2023-07-31T11:48:20;465.90;;;333.23;;
9322;SDS011;4700;48.822;9.270;2023-07-31T11:51:08;440.33;;;314.27;;
9322;SDS011;4700;48.822;9.270;2023-07-31T11:53:56;441.97;;;319.73;;
9322;SDS011;4700;48.822;9.270;2023-07-31T11:56:44;452.73;;;332.97;;
9322;SDS011;4700;48.822;9.270;2023-07-31T11:59:30;447.60;;;328.57;;
9322;SDS011;4700;48.822;9.270;2023-07-31T12:02:19;467.03;;;351.90;;
9322;SDS011;4700;48.822;9.270;2023-07-31T12:05:05;451.77;;;324.50;;
9322;SDS011;4700;48.822;9.270;2023-07-31T12:07:53;466.63;;;351.83;;
9322;SDS011;4700;48.822;9.270;2023-07-31T12:10:39;461.00;;;349.90;;
9322;SDS011;4700;48.822;9.270;2023-07-31T12:13:25;463.87;;;348.97;;
9322;SDS011;4700;48.822;9.270;2023-07-31T12:16:13;478.27;;;394.10;;
9322;SDS011;4700;48.822;9.270;2023-07-31T12:19:01;454.03;;;351.23;;
9322;SDS011;4700;48.822;9.270;2023-07-31T12:21:47;471.27;;;360.57;;
9322;SDS011;4700;48.822;9.270;2023-07-31T12:24:34;479.70;;;398.07;;
9322;SDS011;4700;48.822;9.270;2023-07-31T12:27:23;434.47;;;324.20;;
9322;SDS011;4700;48.822;9.270;2023-07-31T12:33:14;471.03;;;377.03;;
9322;SDS011;4700;48.822;9.270;2023-07-31T12:36:07;449.97;;;334.47;;
9322;SDS011;4700;48.822;9.270;2023-07-31T12:38:54;461.60;;;348.13;;
9322;SDS011;4700;48.822;9.270;2023-07-31T12:41:42;462.70;;;346.40;;
9322;SDS011;4700;48.822;9.270;2023-07-31T12:44:28;442.03;;;321.97;;
9322;SDS011;4700;48.822;9.270;2023-07-31T12:47:13;464.83;;;351.77;;
9322;SDS011;4700;48.822;9.270;2023-07-31T12:49:59;455.57;;;346.93;;
9322;SDS011;4700;48.822;9.270;2023-07-31T12:52:48;459.90;;;335.60;;
9322;SDS011;4700;48.822;9.270;2023-07-31T12:55:34;460.73;;;338.40;;
9322;SDS011;4700;48.822;9.270;2023-07-31T12:58:22;452.67;;;336.03;;
9322;SDS011;4700;48.822;9.270;2023-07-31T13:01:08;455.73;;;335.97;;
9322;SDS011;4700;48.822;9.270;2023-07-31T13:03:54;473.33;;;345.00;;
9322;SDS011;4700;48.822;9.270;2023-07-31T13:06:40;460.90;;;334.20;;
9322;SDS011;4700;48.822;9.270;2023-07-31T13:09:30;433.60;;;302.33;;
9322;SDS011;4700;48.822;9.270;2023-07-31T13:12:17;450.00;;;316.80;;
9322;SDS011;4700;48.822;9.270;2023-07-31T13:15:03;456.93;;;339.93;;
9322;SDS011;4700;48.822;9.270;2023-07-31T13:17:48;440.03;;;314.70;;
9322;SDS011;4700;48.822;9.270;2023-07-31T13:20:36;444.07;;;309.50;;
9322;SDS011;4700;48.822;9.270;2023-07-31T13:23:22;449.80;;;318.87;;
9322;SDS011;4700;48.822;9.270;2023-07-31T13:26:11;464.80;;;326.20;;
9322;SDS011;4700;48.822;9.270;2023-07-31T13:28:56;438.00;;;314.17;;
9322;SDS011;4700;48.822;9.270;2023-07-31T13:31:42;437.40;;;308.17;;
9322;SDS011;4700;48.822;9.270;2023-07-31T13:34:28;444.80;;;316.57;;
9322;SDS011;4700;48.822;9.270;2023-07-31T13:37:14;451.00;;;325.73;;
9322;SDS011;4700;48.822;9.270;2023-07-31T13:40:00;488.13;;;371.03;;
9322;SDS011;4700;48.822;9.270;2023-07-31T13:42:49;442.67;;;322.80;;
9322;SDS011;4700;48.822;9.270;2023-07-31T13:45:39;469.57;;;359.60;;
9322;SDS011;4700;48.822;9.270;2023-07-31T13:48:25;446.93;;;319.17;;
9322;SDS011;4700;48.822;9.270;2023-07-31T13:51:11;460.57;;;331.33;;
9322;SDS011;4700;48.822;9.270;2023-07-31T13:53:58;446.20;;;322.60;;
9322;SDS011;4700;48.822;9.270;2023-07-31T13:56:45;447.13;;;330.93;;
9322;SDS011;4700;48.822;9.270;2023-07-31T13:59:33;433.00;;;289.93;;
9322;SDS011;4700;48.822;9.270;2023-07-31T14:02:18;452.03;;;315.13;;
9322;SDS011;4700;48.822;9.270;2023-07-31T14:05:04;452.00;;;319.57;;
9322;SDS011;4700;48.822;9.270;2023-07-31T14:07:52;438.77;;;291.60;;
9322;SDS011;4700;48.822;9.270;2023-07-31T14:10:38;454.77;;;325.57;;
9322;SDS011;4700;48.822;9.270;2023-07-31T14:13:23;460.70;;;332.00;;
9322;SDS011;4700;48.822;9.270;2023-07-31T14:16:10;456.13;;;339.00;;
9322;SDS011;4700;48.822;9.270;2023-07-31T14:18:56;452.33;;;330.73;;
9322;SDS011;4700;48.822;9.270;2023-07-31T14:21:42;466.07;;;341.80;;
9322;SDS011;4700;48.822;9.270;2023-07-31T14:24:28;445.40;;;317.33;;
9322;SDS011;4700;48.822;9.270;2023-07-31T14:27:14;448.03;;;323.70;;
9322;SDS011;4700;48.822;9.270;2023-07-31T14:29:59;484.97;;;357.20;;
9322;SDS011;4700;48.822;9.270;2023-07-31T14:32:46;444.53;;;298.53;;
9322;SDS011;4700;48.822;9.270;2023-07-31T14:35:35;462.50;;;338.07;;
9322;SDS011;4700;48.822;9.270;2023-07-31T14:38:20;447.60;;;314.73;;
9322;SDS011;4700;48.822;9.270;2023-07-31T14:41:06;427.67;;;286.23;;
9322;SDS011;4700;48.822;9.270;2023-07-31T14:43:54;447.80;;;310.03;;
9322;SDS011;4700;48.822;9.270;2023-07-31T14:46:40;453.10;;;307.50;;
9322;SDS011;4700;48.822;9.270;2023-07-31T14:49:27;450.43;;;320.27;;
9322;SDS011;4700;48.822;9.270;2023-07-31T14:52:13;437.07;;;308.20;;
9322;SDS011;4700;48.822;9.270;2023-07-31T14:54:58;461.37;;;332.70;;
9322;SDS011;4700;48.822;9.270;2023-07-31T14:57:44;452.10;;;327.27;;
9322;SDS011;4700;48.822;9.270;2023-07-31T15:00:30;465.47;;;338.93;;
9322;SDS011;4700;48.822;9.270;2023-07-31T15:03:15;447.60;;;308.53;;
9322;SDS011;4700;48.822;9.270;2023-07-31T15:06:02;443.40;;;310.53;;
9322;SDS011;4700;48.822;9.270;2023-07-31T15:08:49;441.40;;;311.63;;
9322;SDS011;4700;48.822;9.270;2023-07-31T15:11:35;448.00;;;311.30;;
9322;SDS011;4700;48.822;9.270;2023-07-31T15:14:23;443.03;;;307.57;;
9322;SDS011;4700;48.822;9.270;2023-07-31T15:16:52;441.10;;;302.47;;
9322;SDS011;4700;48.822;9.270;2023-07-31T15:19:38;457.67;;;324.40;;
9322;SDS011;4700;48.822;9.270;2023-07-31T15:22:25;437.50;;;292.83;;
9322;SDS011;4700;48.822;9.270;2023-07-31T15:25:11;452.87;;;311.50;;
9322;SDS011;4700;48.822;9.270;2023-07-31T15:27:57;449.90;;;293.07;;
9322;SDS011;4700;48.822;9.270;2023-07-31T15:30:44;457.83;;;322.80;;
9322;SDS011;4700;48.822;9.270;2023-07-31T15:33:30;457.87;;;313.27;;
9322;SDS011;4700;48.822;9.270;2023-07-31T15:36:16;452.07;;;317.63;;
9322;SDS011;4700;48.822;9.270;2023-07-31T15:39:03;451.33;;;314.77;;
9322;SDS011;4700;48.822;9.270;2023-07-31T15:41:52;450.83;;;306.93;;
9322;SDS011;4700;48.822;9.270;2023-07-31T15:44:37;454.40;;;337.80;;
9322;SDS011;4700;48.822;9.270;2023-07-31T15:47:27;440.47;;;308.57;;
9322;SDS011;4700;48.822;9.270;2023-07-31T15:50:13;448.07;;;308.40;;
9322;SDS011;4700;48.822;9.270;2023-07-31T15:52:59;428.17;;;276.17;;
9322;SDS011;4700;48.822;9.270;2023-07-31T15:55:45;450.03;;;316.73;;
9322;SDS011;4700;48.822;9.270;2023-07-31T15:58:31;447.40;;;301.93;;
9322;SDS011;4700;48.822;9.270;2023-07-31T16:01:17;425.70;;;266.77;;
9322;SDS011;4700;48.822;9.270;2023-07-31T16:04:03;434.73;;;284.77;;
9322;SDS011;4700;48.822;9.270;2023-07-31T16:06:48;442.90;;;283.00;;
9322;SDS011;4700;48.822;9.270;2023-07-31T16:09:34;448.27;;;309.07;;
9322;SDS011;4700;48.822;9.270;2023-07-31T16:12:21;455.77;;;316.20;;
9322;SDS011;4700;48.822;9.270;2023-07-31T16:15:08;436.80;;;276.80;;
9322;SDS011;4700;48.822;9.270;2023-07-31T16:17:53;425.93;;;270.20;;
9322;SDS011;4700;48.822;9.270;2023-07-31T16:20:39;427.47;;;269.57;;